sensor_id;sensor_type;location;lat;lon;timestamp;P1;durP1;ratioP1;P2;durP2;ratioP2
21780;SDS011;52576;53.614;9.894;2023-04-25T00:00:31;21.83;;;5.68;;
21780;SDS011;52576;53.614;9.894;2023-04-25T00:02:35;21.48;;;5.75;;
21780;SDS011;52576;53.614;9.894;2023-04-25T00:04:38;24.63;;;5.85;;
21780;SDS011;52576;53.614;9.894;2023-04-25T00:06:43;28.50;;;5.65;;
21780;SDS011;52576;53.614;9.894;2023-04-25T00:08:46;20.88;;;5.35;;
21780;SDS011;52576;53.614;9.894;2023-04-25T00:10:50;34.05;;;5.38;;
21780;SDS011;52576;53.614;9.894;2023-04-25T00:12:55;23.33;;;4.87;;
21780;SDS011;52576;53.614;9.894;2023-04-25T00:14:59;30.38;;;5.07;;
21780;SDS011;52576;53.614;9.894;2023-04-25T00:17:02;30.38;;;4.82;;
21780;SDS011;52576;53.614;9.894;2023-04-25T00:19:06;31.08;;;5.05;;
21780;SDS011;52576;53.614;9.894;2023-04-25T00:21:09;31.15;;;4.75;;
21780;SDS011;52576;53.614;9.894;2023-04-25T00:23:13;23.85;;;5.28;;
21780;SDS011;52576;53.614;9.894;2023-04-25T00:25:19;24.92;;;4.47;;
21780;SDS011;52576;53.614;9.894;2023-04-25T00:27:23;34.05;;;4.82;;
21780;SDS011;52576;53.614;9.894;2023-04-25T00:29:28;22.45;;;4.28;;
21780;SDS011;52576;53.614;9.894;2023-04-25T00:31:31;28.02;;;4.75;;
21780;SDS011;52576;53.614;9.894;2023-04-25T00:33:35;29.75;;;4.55;;
21780;SDS011;52576;53.614;9.894;2023-04-25T00:35:38;25.85;;;4.68;;
21780;SDS011;52576;53.614;9.894;2023-04-25T00:37:42;25.65;;;3.90;;
21780;SDS011;52576;53.614;9.894;2023-04-25T00:39:46;26.77;;;4.68;;
21780;SDS011;52576;53.614;9.894;2023-04-25T00:41:49;30.42;;;4.85;;
21780;SDS011;52576;53.614;9.894;2023-04-25T00:43:55;35.35;;;5.00;;
21780;SDS011;52576;53.614;9.894;2023-04-25T00:46:00;28.95;;;4.63;;
21780;SDS011;52576;53.614;9.894;2023-04-25T00:48:04;34.13;;;4.95;;
21780;SDS011;52576;53.614;9.894;2023-04-25T00:50:08;27.95;;;4.50;;
21780;SDS011;52576;53.614;9.894;2023-04-25T00:52:13;31.60;;;5.18;;
21780;SDS011;52576;53.614;9.894;2023-04-25T00:54:16;26.67;;;4.70;;
21780;SDS011;52576;53.614;9.894;2023-04-25T00:56:20;31.45;;;4.90;;
21780;SDS011;52576;53.614;9.894;2023-04-25T00:58:25;23.98;;;4.55;;
21780;SDS011;52576;53.614;9.894;2023-04-25T01:00:29;26.42;;;4.22;;
21780;SDS011;52576;53.614;9.894;2023-04-25T01:02:33;37.60;;;5.30;;
21780;SDS011;52576;53.614;9.894;2023-04-25T01:04:38;39.38;;;5.30;;
21780;SDS011;52576;53.614;9.894;2023-04-25T01:06:42;22.95;;;4.38;;
21780;SDS011;52576;53.614;9.894;2023-04-25T01:08:45;34.05;;;4.95;;
21780;SDS011;52576;53.614;9.894;2023-04-25T01:10:49;30.05;;;4.63;;
21780;SDS011;52576;53.614;9.894;2023-04-25T01:12:52;32.72;;;4.63;;
21780;SDS011;52576;53.614;9.894;2023-04-25T01:14:56;26.98;;;5.10;;
21780;SDS011;52576;53.614;9.894;2023-04-25T01:17:00;26.70;;;4.10;;
21780;SDS011;52576;53.614;9.894;2023-04-25T01:19:06;28.48;;;5.57;;
21780;SDS011;52576;53.614;9.894;2023-04-25T01:21:15;29.20;;;5.30;;
21780;SDS011;52576;53.614;9.894;2023-04-25T01:23:19;28.65;;;4.95;;
21780;SDS011;52576;53.614;9.894;2023-04-25T01:25:23;30.75;;;4.78;;
21780;SDS011;52576;53.614;9.894;2023-04-25T01:27:27;31.40;;;4.97;;
21780;SDS011;52576;53.614;9.894;2023-04-25T01:29:31;34.53;;;5.20;;
21780;SDS011;52576;53.614;9.894;2023-04-25T01:31:35;27.85;;;4.60;;
21780;SDS011;52576;53.614;9.894;2023-04-25T01:33:40;34.00;;;5.63;;
21780;SDS011;52576;53.614;9.894;2023-04-25T01:35:43;26.58;;;4.57;;
21780;SDS011;52576;53.614;9.894;2023-04-25T01:37:48;37.47;;;5.47;;
21780;SDS011;52576;53.614;9.894;2023-04-25T01:39:52;31.05;;;4.75;;
21780;SDS011;52576;53.614;9.894;2023-04-25T01:41:57;27.33;;;4.53;;
21780;SDS011;52576;53.614;9.894;2023-04-25T01:44:02;31.52;;;4.85;;
21780;SDS011;52576;53.614;9.894;2023-04-25T01:46:05;31.45;;;5.15;;
21780;SDS011;52576;53.614;9.894;2023-04-25T01:48:09;28.15;;;5.07;;
21780;SDS011;52576;53.614;9.894;2023-04-25T01:50:14;33.10;;;5.22;;
21780;SDS011;52576;53.614;9.894;2023-04-25T01:52:19;27.85;;;5.00;;
21780;SDS011;52576;53.614;9.894;2023-04-25T01:54:24;36.22;;;5.45;;
21780;SDS011;52576;53.614;9.894;2023-04-25T01:56:29;26.70;;;5.32;;
21780;SDS011;52576;53.614;9.894;2023-04-25T01:58:34;34.97;;;5.15;;
21780;SDS011;52576;53.614;9.894;2023-04-25T02:00:49;28.98;;;4.53;;
21780;SDS011;52576;53.614;9.894;2023-04-25T02:02:53;36.20;;;5.70;;
21780;SDS011;52576;53.614;9.894;2023-04-25T02:05:06;34.15;;;4.32;;
21780;SDS011;52576;53.614;9.894;2023-04-25T02:07:13;36.53;;;5.13;;
21780;SDS011;52576;53.614;9.894;2023-04-25T02:09:25;30.00;;;4.65;;
21780;SDS011;52576;53.614;9.894;2023-04-25T02:11:30;37.22;;;5.95;;
21780;SDS011;52576;53.614;9.894;2023-04-25T02:14:03;31.60;;;4.60;;
21780;SDS011;52576;53.614;9.894;2023-04-25T02:16:13;29.25;;;4.78;;
21780;SDS011;52576;53.614;9.894;2023-04-25T02:18:16;24.10;;;4.80;;
21780;SDS011;52576;53.614;9.894;2023-04-25T02:20:20;31.75;;;5.47;;
21780;SDS011;52576;53.614;9.894;2023-04-25T02:22:24;32.72;;;4.95;;
21780;SDS011;52576;53.614;9.894;2023-04-25T02:24:31;31.70;;;4.80;;
21780;SDS011;52576;53.614;9.894;2023-04-25T02:26:36;30.42;;;4.70;;
21780;SDS011;52576;53.614;9.894;2023-04-25T02:28:42;27.85;;;5.20;;
21780;SDS011;52576;53.614;9.894;2023-04-25T02:30:46;38.38;;;5.10;;
21780;SDS011;52576;53.614;9.894;2023-04-25T02:32:49;28.38;;;4.47;;
21780;SDS011;52576;53.614;9.894;2023-04-25T02:34:53;32.95;;;5.53;;
21780;SDS011;52576;53.614;9.894;2023-04-25T02:36:56;33.22;;;4.95;;
21780;SDS011;52576;53.614;9.894;2023-04-25T02:39:00;35.08;;;5.28;;
21780;SDS011;52576;53.614;9.894;2023-04-25T02:41:06;30.90;;;4.57;;
21780;SDS011;52576;53.614;9.894;2023-04-25T02:43:09;37.92;;;4.72;;
21780;SDS011;52576;53.614;9.894;2023-04-25T02:45:12;32.08;;;5.47;;
21780;SDS011;52576;53.614;9.894;2023-04-25T02:47:16;32.72;;;5.07;;
21780;SDS011;52576;53.614;9.894;2023-04-25T02:49:19;33.35;;;5.20;;
21780;SDS011;52576;53.614;9.894;2023-04-25T02:51:23;22.23;;;3.50;;
21780;SDS011;52576;53.614;9.894;2023-04-25T02:53:26;27.63;;;4.45;;
21780;SDS011;52576;53.614;9.894;2023-04-25T02:55:30;26.55;;;4.25;;
21780;SDS011;52576;53.614;9.894;2023-04-25T02:57:37;26.50;;;5.07;;
21780;SDS011;52576;53.614;9.894;2023-04-25T02:59:41;20.88;;;3.95;;
21780;SDS011;52576;53.614;9.894;2023-04-25T03:01:45;27.90;;;4.10;;
21780;SDS011;52576;53.614;9.894;2023-04-25T03:03:48;22.63;;;4.53;;
21780;SDS011;52576;53.614;9.894;2023-04-25T03:05:52;23.15;;;4.80;;
21780;SDS011;52576;53.614;9.894;2023-04-25T03:08:00;28.63;;;4.20;;
21780;SDS011;52576;53.614;9.894;2023-04-25T03:10:07;23.92;;;4.40;;
21780;SDS011;52576;53.614;9.894;2023-04-25T03:12:11;29.10;;;4.25;;
21780;SDS011;52576;53.614;9.894;2023-04-25T03:14:16;27.38;;;4.70;;
21780;SDS011;52576;53.614;9.894;2023-04-25T03:16:19;31.35;;;4.22;;
21780;SDS011;52576;53.614;9.894;2023-04-25T03:18:24;29.25;;;4.50;;
21780;SDS011;52576;53.614;9.894;2023-04-25T03:20:28;21.75;;;3.92;;
21780;SDS011;52576;53.614;9.894;2023-04-25T03:22:32;19.80;;;3.67;;
21780;SDS011;52576;53.614;9.894;2023-04-25T03:24:36;28.90;;;4.05;;
21780;SDS011;52576;53.614;9.894;2023-04-25T03:26:39;20.83;;;3.58;;
21780;SDS011;52576;53.614;9.894;2023-04-25T03:28:43;20.17;;;3.90;;
21780;SDS011;52576;53.614;9.894;2023-04-25T03:30:48;26.90;;;3.90;;
21780;SDS011;52576;53.614;9.894;2023-04-25T03:32:51;29.08;;;3.97;;
21780;SDS011;52576;53.614;9.894;2023-04-25T03:34:55;30.88;;;4.68;;
21780;SDS011;52576;53.614;9.894;2023-04-25T03:37:01;26.05;;;4.07;;
21780;SDS011;52576;53.614;9.894;2023-04-25T03:39:09;19.95;;;3.63;;
21780;SDS011;52576;53.614;9.894;2023-04-25T03:41:14;23.83;;;3.88;;
21780;SDS011;52576;53.614;9.894;2023-04-25T03:43:28;20.48;;;4.05;;
21780;SDS011;52576;53.614;9.894;2023-04-25T03:45:37;22.35;;;3.70;;
21780;SDS011;52576;53.614;9.894;2023-04-25T03:47:42;26.90;;;4.50;;
21780;SDS011;52576;53.614;9.894;2023-04-25T03:49:46;23.77;;;3.85;;
21780;SDS011;52576;53.614;9.894;2023-04-25T03:51:53;28.58;;;4.13;;
21780;SDS011;52576;53.614;9.894;2023-04-25T03:53:57;24.60;;;4.28;;
21780;SDS011;52576;53.614;9.894;2023-04-25T03:56:19;26.90;;;4.22;;
21780;SDS011;52576;53.614;9.894;2023-04-25T03:58:30;27.83;;;4.07;;
21780;SDS011;52576;53.614;9.894;2023-04-25T04:00:34;27.15;;;3.65;;
21780;SDS011;52576;53.614;9.894;2023-04-25T04:02:37;26.65;;;4.03;;
21780;SDS011;52576;53.614;9.894;2023-04-25T04:04:46;27.10;;;3.80;;
21780;SDS011;52576;53.614;9.894;2023-04-25T04:06:50;23.45;;;3.92;;
21780;SDS011;52576;53.614;9.894;2023-04-25T04:08:59;27.35;;;4.25;;
21780;SDS011;52576;53.614;9.894;2023-04-25T04:11:05;25.60;;;4.13;;
21780;SDS011;52576;53.614;9.894;2023-04-25T04:13:09;16.85;;;3.35;;
21780;SDS011;52576;53.614;9.894;2023-04-25T04:15:12;27.40;;;3.78;;
21780;SDS011;52576;53.614;9.894;2023-04-25T04:17:18;19.02;;;3.10;;
21780;SDS011;52576;53.614;9.894;2023-04-25T04:19:21;27.38;;;3.63;;
21780;SDS011;52576;53.614;9.894;2023-04-25T04:21:35;23.42;;;4.10;;
21780;SDS011;52576;53.614;9.894;2023-04-25T04:23:39;21.40;;;3.95;;
21780;SDS011;52576;53.614;9.894;2023-04-25T04:25:43;24.15;;;4.00;;
21780;SDS011;52576;53.614;9.894;2023-04-25T04:28:07;21.55;;;3.30;;
21780;SDS011;52576;53.614;9.894;2023-04-25T04:30:24;27.13;;;3.80;;
21780;SDS011;52576;53.614;9.894;2023-04-25T04:32:33;19.05;;;4.38;;
21780;SDS011;52576;53.614;9.894;2023-04-25T04:34:39;18.65;;;3.00;;
21780;SDS011;52576;53.614;9.894;2023-04-25T04:36:47;21.13;;;3.50;;
21780;SDS011;52576;53.614;9.894;2023-04-25T04:38:51;24.98;;;3.55;;
21780;SDS011;52576;53.614;9.894;2023-04-25T04:41:07;23.90;;;3.67;;
21780;SDS011;52576;53.614;9.894;2023-04-25T04:43:22;17.45;;;3.08;;
21780;SDS011;52576;53.614;9.894;2023-04-25T04:45:44;24.58;;;3.67;;
21780;SDS011;52576;53.614;9.894;2023-04-25T04:48:14;18.85;;;3.10;;
21780;SDS011;52576;53.614;9.894;2023-04-25T04:50:30;20.08;;;3.28;;
21780;SDS011;52576;53.614;9.894;2023-04-25T04:52:44;26.77;;;4.07;;
21780;SDS011;52576;53.614;9.894;2023-04-25T04:55:13;20.75;;;3.72;;
21780;SDS011;52576;53.614;9.894;2023-04-25T04:57:36;26.48;;;3.90;;
21780;SDS011;52576;53.614;9.894;2023-04-25T04:59:58;25.00;;;3.63;;
21780;SDS011;52576;53.614;9.894;2023-04-25T05:02:21;18.30;;;3.20;;
21780;SDS011;52576;53.614;9.894;2023-04-25T05:04:44;18.15;;;3.35;;
21780;SDS011;52576;53.614;9.894;2023-04-25T05:07:10;21.83;;;3.42;;
21780;SDS011;52576;53.614;9.894;2023-04-25T05:09:26;20.95;;;3.60;;
21780;SDS011;52576;53.614;9.894;2023-04-25T05:11:38;17.42;;;2.78;;
21780;SDS011;52576;53.614;9.894;2023-04-25T05:13:59;18.15;;;3.25;;
21780;SDS011;52576;53.614;9.894;2023-04-25T05:16:32;16.75;;;2.88;;
21780;SDS011;52576;53.614;9.894;2023-04-25T05:19:05;15.10;;;3.13;;
21780;SDS011;52576;53.614;9.894;2023-04-25T05:23:50;19.85;;;3.33;;
21780;SDS011;52576;53.614;9.894;2023-04-25T05:26:21;19.75;;;2.85;;
21780;SDS011;52576;53.614;9.894;2023-04-25T05:28:48;24.75;;;3.35;;
21780;SDS011;52576;53.614;9.894;2023-04-25T05:30:58;16.17;;;2.58;;
21780;SDS011;52576;53.614;9.894;2023-04-25T05:33:05;18.17;;;3.20;;
21780;SDS011;52576;53.614;9.894;2023-04-25T05:35:08;20.63;;;3.70;;
21780;SDS011;52576;53.614;9.894;2023-04-25T05:37:17;28.60;;;3.72;;
21780;SDS011;52576;53.614;9.894;2023-04-25T05:39:30;19.75;;;3.40;;
21780;SDS011;52576;53.614;9.894;2023-04-25T05:42:07;18.35;;;3.70;;
21780;SDS011;52576;53.614;9.894;2023-04-25T05:44:42;24.02;;;3.70;;
21780;SDS011;52576;53.614;9.894;2023-04-25T05:47:05;23.02;;;3.78;;
21780;SDS011;52576;53.614;9.894;2023-04-25T05:49:48;18.75;;;3.55;;
21780;SDS011;52576;53.614;9.894;2023-04-25T05:52:06;21.88;;;3.67;;
21780;SDS011;52576;53.614;9.894;2023-04-25T05:54:23;18.65;;;3.00;;
21780;SDS011;52576;53.614;9.894;2023-04-25T05:56:29;20.90;;;3.65;;
21780;SDS011;52576;53.614;9.894;2023-04-25T05:58:34;15.23;;;2.85;;
21780;SDS011;52576;53.614;9.894;2023-04-25T06:00:38;21.70;;;3.95;;
21780;SDS011;52576;53.614;9.894;2023-04-25T06:02:43;18.05;;;3.35;;
21780;SDS011;52576;53.614;9.894;2023-04-25T06:04:49;19.58;;;4.05;;
21780;SDS011;52576;53.614;9.894;2023-04-25T06:06:53;25.05;;;3.80;;
21780;SDS011;52576;53.614;9.894;2023-04-25T06:08:57;23.70;;;3.70;;
21780;SDS011;52576;53.614;9.894;2023-04-25T06:11:01;15.73;;;3.38;;
21780;SDS011;52576;53.614;9.894;2023-04-25T06:13:05;22.63;;;3.95;;
21780;SDS011;52576;53.614;9.894;2023-04-25T06:15:11;14.70;;;2.95;;
21780;SDS011;52576;53.614;9.894;2023-04-25T06:17:29;18.42;;;3.45;;
21780;SDS011;52576;53.614;9.894;2023-04-25T06:19:37;17.73;;;3.65;;
21780;SDS011;52576;53.614;9.894;2023-04-25T06:21:41;12.63;;;3.13;;
21780;SDS011;52576;53.614;9.894;2023-04-25T06:23:46;24.45;;;3.58;;
21780;SDS011;52576;53.614;9.894;2023-04-25T06:25:55;19.17;;;3.13;;
21780;SDS011;52576;53.614;9.894;2023-04-25T06:27:59;16.60;;;3.03;;
21780;SDS011;52576;53.614;9.894;2023-04-25T06:30:04;18.90;;;4.22;;
21780;SDS011;52576;53.614;9.894;2023-04-25T06:32:10;18.00;;;3.22;;
21780;SDS011;52576;53.614;9.894;2023-04-25T06:34:14;21.52;;;3.28;;
21780;SDS011;52576;53.614;9.894;2023-04-25T06:36:19;19.38;;;3.42;;
21780;SDS011;52576;53.614;9.894;2023-04-25T06:38:29;19.35;;;3.85;;
21780;SDS011;52576;53.614;9.894;2023-04-25T06:40:33;17.13;;;3.83;;
21780;SDS011;52576;53.614;9.894;2023-04-25T06:42:36;17.65;;;3.42;;
21780;SDS011;52576;53.614;9.894;2023-04-25T06:44:58;20.95;;;3.33;;
21780;SDS011;52576;53.614;9.894;2023-04-25T06:47:04;24.05;;;3.08;;
21780;SDS011;52576;53.614;9.894;2023-04-25T06:49:10;15.10;;;2.63;;
21780;SDS011;52576;53.614;9.894;2023-04-25T06:51:14;16.92;;;3.08;;
21780;SDS011;52576;53.614;9.894;2023-04-25T06:53:18;12.27;;;2.70;;
21780;SDS011;52576;53.614;9.894;2023-04-25T06:55:28;16.35;;;2.97;;
21780;SDS011;52576;53.614;9.894;2023-04-25T06:57:47;19.00;;;2.72;;
21780;SDS011;52576;53.614;9.894;2023-04-25T07:00:10;17.33;;;2.47;;
21780;SDS011;52576;53.614;9.894;2023-04-25T07:02:14;17.48;;;2.55;;
21780;SDS011;52576;53.614;9.894;2023-04-25T07:04:20;12.13;;;2.60;;
21780;SDS011;52576;53.614;9.894;2023-04-25T07:06:28;24.15;;;3.08;;
21780;SDS011;52576;53.614;9.894;2023-04-25T07:08:31;16.27;;;3.28;;
21780;SDS011;52576;53.614;9.894;2023-04-25T07:10:35;14.70;;;2.90;;
21780;SDS011;52576;53.614;9.894;2023-04-25T07:12:38;17.25;;;2.78;;
21780;SDS011;52576;53.614;9.894;2023-04-25T07:14:42;17.67;;;3.22;;
21780;SDS011;52576;53.614;9.894;2023-04-25T07:16:45;15.73;;;2.90;;
21780;SDS011;52576;53.614;9.894;2023-04-25T07:18:49;14.40;;;2.35;;
21780;SDS011;52576;53.614;9.894;2023-04-25T07:20:54;11.13;;;2.60;;
21780;SDS011;52576;53.614;9.894;2023-04-25T07:22:58;19.15;;;2.30;;
21780;SDS011;52576;53.614;9.894;2023-04-25T07:25:02;14.63;;;2.53;;
21780;SDS011;52576;53.614;9.894;2023-04-25T07:27:06;14.18;;;3.05;;
21780;SDS011;52576;53.614;9.894;2023-04-25T07:29:32;16.08;;;2.42;;
21780;SDS011;52576;53.614;9.894;2023-04-25T07:31:38;18.13;;;2.53;;
21780;SDS011;52576;53.614;9.894;2023-04-25T07:33:42;21.23;;;3.58;;
21780;SDS011;52576;53.614;9.894;2023-04-25T07:35:45;12.80;;;2.60;;
21780;SDS011;52576;53.614;9.894;2023-04-25T07:37:50;11.57;;;2.50;;
21780;SDS011;52576;53.614;9.894;2023-04-25T07:39:54;14.20;;;2.25;;
21780;SDS011;52576;53.614;9.894;2023-04-25T07:41:57;14.93;;;2.50;;
21780;SDS011;52576;53.614;9.894;2023-04-25T07:44:03;12.38;;;2.50;;
21780;SDS011;52576;53.614;9.894;2023-04-25T07:46:09;12.77;;;2.75;;
21780;SDS011;52576;53.614;9.894;2023-04-25T07:48:15;10.30;;;2.10;;
21780;SDS011;52576;53.614;9.894;2023-04-25T07:50:21;15.13;;;2.80;;
21780;SDS011;52576;53.614;9.894;2023-04-25T07:52:24;16.67;;;2.75;;
21780;SDS011;52576;53.614;9.894;2023-04-25T07:54:37;15.05;;;2.42;;
21780;SDS011;52576;53.614;9.894;2023-04-25T07:56:48;20.60;;;2.47;;
21780;SDS011;52576;53.614;9.894;2023-04-25T07:59:00;13.40;;;2.22;;
21780;SDS011;52576;53.614;9.894;2023-04-25T08:01:04;14.10;;;2.42;;
21780;SDS011;52576;53.614;9.894;2023-04-25T08:03:25;14.60;;;2.23;;
21780;SDS011;52576;53.614;9.894;2023-04-25T08:05:29;14.85;;;2.70;;
21780;SDS011;52576;53.614;9.894;2023-04-25T08:07:37;11.18;;;2.05;;
21780;SDS011;52576;53.614;9.894;2023-04-25T08:09:43;15.70;;;2.53;;
21780;SDS011;52576;53.614;9.894;2023-04-25T08:11:55;15.10;;;2.10;;
21780;SDS011;52576;53.614;9.894;2023-04-25T08:14:03;16.20;;;2.80;;
21780;SDS011;52576;53.614;9.894;2023-04-25T08:16:07;15.35;;;2.20;;
21780;SDS011;52576;53.614;9.894;2023-04-25T08:18:11;14.32;;;2.60;;
21780;SDS011;52576;53.614;9.894;2023-04-25T08:20:18;11.77;;;2.35;;
21780;SDS011;52576;53.614;9.894;2023-04-25T08:22:23;15.35;;;2.60;;
21780;SDS011;52576;53.614;9.894;2023-04-25T08:24:47;16.23;;;2.47;;
21780;SDS011;52576;53.614;9.894;2023-04-25T08:26:51;10.45;;;2.20;;
21780;SDS011;52576;53.614;9.894;2023-04-25T08:28:59;14.25;;;2.40;;
21780;SDS011;52576;53.614;9.894;2023-04-25T08:31:03;18.23;;;2.60;;
21780;SDS011;52576;53.614;9.894;2023-04-25T08:33:14;13.15;;;2.42;;
21780;SDS011;52576;53.614;9.894;2023-04-25T08:35:33;13.52;;;2.88;;
21780;SDS011;52576;53.614;9.894;2023-04-25T08:37:37;17.58;;;2.70;;
21780;SDS011;52576;53.614;9.894;2023-04-25T08:39:47;12.52;;;2.03;;
21780;SDS011;52576;53.614;9.894;2023-04-25T08:41:53;12.75;;;2.40;;
21780;SDS011;52576;53.614;9.894;2023-04-25T08:43:57;10.60;;;1.92;;
21780;SDS011;52576;53.614;9.894;2023-04-25T08:46:03;11.88;;;2.30;;
21780;SDS011;52576;53.614;9.894;2023-04-25T08:48:22;13.40;;;2.40;;
21780;SDS011;52576;53.614;9.894;2023-04-25T08:50:29;14.93;;;2.25;;
21780;SDS011;52576;53.614;9.894;2023-04-25T08:52:35;14.80;;;3.00;;
21780;SDS011;52576;53.614;9.894;2023-04-25T08:54:41;14.63;;;2.33;;
21780;SDS011;52576;53.614;9.894;2023-04-25T08:56:49;14.90;;;2.65;;
21780;SDS011;52576;53.614;9.894;2023-04-25T08:58:53;11.57;;;2.25;;
21780;SDS011;52576;53.614;9.894;2023-04-25T09:00:58;9.73;;;1.95;;
21780;SDS011;52576;53.614;9.894;2023-04-25T09:03:05;11.50;;;1.83;;
21780;SDS011;52576;53.614;9.894;2023-04-25T09:05:09;10.65;;;1.85;;
21780;SDS011;52576;53.614;9.894;2023-04-25T09:07:17;8.55;;;1.60;;
21780;SDS011;52576;53.614;9.894;2023-04-25T09:09:24;8.73;;;1.70;;
21780;SDS011;52576;53.614;9.894;2023-04-25T09:11:27;11.70;;;1.98;;
21780;SDS011;52576;53.614;9.894;2023-04-25T09:13:33;10.25;;;2.03;;
21780;SDS011;52576;53.614;9.894;2023-04-25T09:16:03;11.33;;;1.90;;
21780;SDS011;52576;53.614;9.894;2023-04-25T09:18:27;14.90;;;2.15;;
21780;SDS011;52576;53.614;9.894;2023-04-25T09:20:33;9.38;;;1.75;;
21780;SDS011;52576;53.614;9.894;2023-04-25T09:23:01;11.10;;;1.70;;
21780;SDS011;52576;53.614;9.894;2023-04-25T09:25:10;14.23;;;2.20;;
21780;SDS011;52576;53.614;9.894;2023-04-25T09:27:17;8.60;;;2.35;;
21780;SDS011;52576;53.614;9.894;2023-04-25T09:29:31;15.38;;;2.65;;
21780;SDS011;52576;53.614;9.894;2023-04-25T09:31:36;13.75;;;2.47;;
21780;SDS011;52576;53.614;9.894;2023-04-25T09:33:41;12.23;;;2.30;;
21780;SDS011;52576;53.614;9.894;2023-04-25T09:35:45;13.15;;;2.20;;
21780;SDS011;52576;53.614;9.894;2023-04-25T09:38:08;12.68;;;2.40;;
21780;SDS011;52576;53.614;9.894;2023-04-25T09:40:43;13.85;;;2.42;;
21780;SDS011;52576;53.614;9.894;2023-04-25T09:42:57;12.55;;;2.40;;
21780;SDS011;52576;53.614;9.894;2023-04-25T09:45:02;19.10;;;2.55;;
21780;SDS011;52576;53.614;9.894;2023-04-25T09:47:11;12.77;;;2.57;;
21780;SDS011;52576;53.614;9.894;2023-04-25T09:49:19;13.25;;;2.63;;
21780;SDS011;52576;53.614;9.894;2023-04-25T09:51:43;13.25;;;2.65;;
21780;SDS011;52576;53.614;9.894;2023-04-25T09:53:58;10.45;;;2.25;;
21780;SDS011;52576;53.614;9.894;2023-04-25T09:56:09;14.32;;;2.30;;
21780;SDS011;52576;53.614;9.894;2023-04-25T09:58:13;11.88;;;2.00;;
21780;SDS011;52576;53.614;9.894;2023-04-25T10:00:19;10.60;;;2.20;;
21780;SDS011;52576;53.614;9.894;2023-04-25T10:02:24;11.70;;;1.88;;
21780;SDS011;52576;53.614;9.894;2023-04-25T10:04:35;14.37;;;2.33;;
21780;SDS011;52576;53.614;9.894;2023-04-25T10:06:43;7.75;;;1.70;;
21780;SDS011;52576;53.614;9.894;2023-04-25T10:08:50;9.02;;;1.67;;
21780;SDS011;52576;53.614;9.894;2023-04-25T10:10:57;8.80;;;1.65;;
21780;SDS011;52576;53.614;9.894;2023-04-25T10:13:05;8.75;;;1.90;;
21780;SDS011;52576;53.614;9.894;2023-04-25T10:15:09;12.48;;;1.67;;
21780;SDS011;52576;53.614;9.894;2023-04-25T10:17:16;9.32;;;2.00;;
21780;SDS011;52576;53.614;9.894;2023-04-25T10:19:21;14.38;;;2.58;;
21780;SDS011;52576;53.614;9.894;2023-04-25T10:21:25;12.73;;;2.25;;
21780;SDS011;52576;53.614;9.894;2023-04-25T10:23:30;12.40;;;2.00;;
21780;SDS011;52576;53.614;9.894;2023-04-25T10:25:36;13.02;;;2.38;;
21780;SDS011;52576;53.614;9.894;2023-04-25T10:27:40;8.10;;;1.75;;
21780;SDS011;52576;53.614;9.894;2023-04-25T10:29:44;8.52;;;1.70;;
21780;SDS011;52576;53.614;9.894;2023-04-25T10:31:47;13.63;;;2.40;;
21780;SDS011;52576;53.614;9.894;2023-04-25T10:33:52;9.18;;;1.95;;
21780;SDS011;52576;53.614;9.894;2023-04-25T10:35:57;12.48;;;1.80;;
21780;SDS011;52576;53.614;9.894;2023-04-25T10:38:03;14.15;;;2.22;;
21780;SDS011;52576;53.614;9.894;2023-04-25T10:40:08;12.63;;;2.00;;
21780;SDS011;52576;53.614;9.894;2023-04-25T10:42:12;12.32;;;1.75;;
21780;SDS011;52576;53.614;9.894;2023-04-25T10:44:16;10.02;;;1.95;;
21780;SDS011;52576;53.614;9.894;2023-04-25T10:46:21;6.82;;;2.13;;
21780;SDS011;52576;53.614;9.894;2023-04-25T10:48:26;9.82;;;1.85;;
21780;SDS011;52576;53.614;9.894;2023-04-25T10:50:38;8.77;;;1.60;;
21780;SDS011;52576;53.614;9.894;2023-04-25T10:52:42;9.52;;;2.13;;
21780;SDS011;52576;53.614;9.894;2023-04-25T10:54:48;12.82;;;2.08;;
21780;SDS011;52576;53.614;9.894;2023-04-25T10:56:54;10.68;;;2.53;;
21780;SDS011;52576;53.614;9.894;2023-04-25T10:59:02;10.07;;;2.03;;
21780;SDS011;52576;53.614;9.894;2023-04-25T11:01:07;13.43;;;2.05;;
21780;SDS011;52576;53.614;9.894;2023-04-25T11:03:15;11.23;;;1.88;;
21780;SDS011;52576;53.614;9.894;2023-04-25T11:05:20;11.25;;;2.28;;
21780;SDS011;52576;53.614;9.894;2023-04-25T11:07:31;11.18;;;2.30;;
21780;SDS011;52576;53.614;9.894;2023-04-25T11:09:40;12.70;;;1.92;;
21780;SDS011;52576;53.614;9.894;2023-04-25T11:11:48;13.27;;;1.80;;
21780;SDS011;52576;53.614;9.894;2023-04-25T11:13:56;11.10;;;1.73;;
21780;SDS011;52576;53.614;9.894;2023-04-25T11:16:00;10.05;;;1.60;;
21780;SDS011;52576;53.614;9.894;2023-04-25T11:18:15;10.05;;;2.13;;
21780;SDS011;52576;53.614;9.894;2023-04-25T11:20:20;11.65;;;1.73;;
21780;SDS011;52576;53.614;9.894;2023-04-25T11:22:23;16.40;;;1.83;;
21780;SDS011;52576;53.614;9.894;2023-04-25T11:24:29;13.52;;;1.70;;
21780;SDS011;52576;53.614;9.894;2023-04-25T11:26:33;10.55;;;1.50;;
21780;SDS011;52576;53.614;9.894;2023-04-25T11:28:39;11.07;;;2.00;;
21780;SDS011;52576;53.614;9.894;2023-04-25T11:30:47;11.38;;;1.80;;
21780;SDS011;52576;53.614;9.894;2023-04-25T11:32:51;8.57;;;1.83;;
21780;SDS011;52576;53.614;9.894;2023-04-25T11:34:56;12.68;;;1.90;;
21780;SDS011;52576;53.614;9.894;2023-04-25T11:37:00;8.90;;;1.55;;
21780;SDS011;52576;53.614;9.894;2023-04-25T11:39:05;10.70;;;1.50;;
21780;SDS011;52576;53.614;9.894;2023-04-25T11:41:10;11.25;;;1.60;;
21780;SDS011;52576;53.614;9.894;2023-04-25T11:43:14;9.73;;;1.60;;
21780;SDS011;52576;53.614;9.894;2023-04-25T11:45:22;10.70;;;1.50;;
21780;SDS011;52576;53.614;9.894;2023-04-25T11:47:29;8.13;;;1.40;;
21780;SDS011;52576;53.614;9.894;2023-04-25T11:49:35;7.90;;;1.60;;
21780;SDS011;52576;53.614;9.894;2023-04-25T11:51:42;9.98;;;1.88;;
21780;SDS011;52576;53.614;9.894;2023-04-25T11:53:47;9.77;;;1.60;;
21780;SDS011;52576;53.614;9.894;2023-04-25T11:55:50;8.38;;;1.80;;
21780;SDS011;52576;53.614;9.894;2023-04-25T11:57:56;9.05;;;1.75;;
21780;SDS011;52576;53.614;9.894;2023-04-25T12:00:09;5.40;;;1.38;;
21780;SDS011;52576;53.614;9.894;2023-04-25T12:02:23;5.43;;;1.33;;
21780;SDS011;52576;53.614;9.894;2023-04-25T12:04:29;11.70;;;1.90;;
21780;SDS011;52576;53.614;9.894;2023-04-25T12:06:34;5.88;;;1.25;;
21780;SDS011;52576;53.614;9.894;2023-04-25T12:08:58;5.03;;;1.70;;
21780;SDS011;52576;53.614;9.894;2023-04-25T12:11:02;8.48;;;1.30;;
21780;SDS011;52576;53.614;9.894;2023-04-25T12:13:23;10.55;;;1.25;;
21780;SDS011;52576;53.614;9.894;2023-04-25T12:17:32;6.82;;;1.42;;
21780;SDS011;52576;53.614;9.894;2023-04-25T12:19:37;11.80;;;1.42;;
21780;SDS011;52576;53.614;9.894;2023-04-25T12:21:42;5.95;;;1.52;;
21780;SDS011;52576;53.614;9.894;2023-04-25T12:24:08;10.60;;;1.70;;
21780;SDS011;52576;53.614;9.894;2023-04-25T12:26:13;7.90;;;1.58;;
21780;SDS011;52576;53.614;9.894;2023-04-25T12:28:19;8.63;;;1.60;;
21780;SDS011;52576;53.614;9.894;2023-04-25T12:30:26;8.68;;;1.40;;
21780;SDS011;52576;53.614;9.894;2023-04-25T12:32:30;8.88;;;1.33;;
21780;SDS011;52576;53.614;9.894;2023-04-25T12:34:33;7.43;;;1.52;;
21780;SDS011;52576;53.614;9.894;2023-04-25T12:36:37;8.20;;;1.63;;
21780;SDS011;52576;53.614;9.894;2023-04-25T12:38:41;11.18;;;1.70;;
21780;SDS011;52576;53.614;9.894;2023-04-25T12:40:45;11.07;;;2.13;;
21780;SDS011;52576;53.614;9.894;2023-04-25T12:42:49;5.63;;;1.52;;
21780;SDS011;52576;53.614;9.894;2023-04-25T12:44:53;15.80;;;1.90;;